Time;durP1;ratioP1;P1;durP2;ratioP2;P2;SDS_P1;SDS_P2;PMS_P1;PMS_P2;Temp;Humidity;BMP_temperature;BMP_pressure;BME280_temperature;BME280_humidity;BME280_pressure;Samples;Min_cycle;Max_cycle;Signal;HPM_P1;HPM_P2
2022/02/28 07:34:12;;;;;;;3.87;1.70;;;;;;;1.83;100.00;101159.73;1692169;83;21046;-66
2022/02/28 07:36:40;;;;;;;4.50;1.60;;;;;;;1.96;100.00;101163.97;1693932;82;21122;-67
2022/02/28 07:39:06;;;;;;;4.90;1.95;;;;;;;2.07;100.00;101157.33;1702060;83;21056;-68
2022/02/28 07:41:33;;;;;;;3.60;2.08;;;;;;;2.07;100.00;101147.08;1682406;82;21005;-66
2022/02/28 07:43:59;;;;;;;;;;;;;;;2.22;100.00;101162.23;1717918;82;21048;-68
2022/02/28 07:46:26;;;;;;;3.10;1.77;;;;;;;2.37;100.00;101167.62;1717164;82;20500;-68
2022/02/28 07:48:53;;;;;;;4.47;2.15;;;;;;;2.40;100.00;101156.50;1718403;82;21644;-67
2022/02/28 07:51:19;;;;;;;;;;;;;;;2.49;99.58;101157.56;1720527;82;21573;-68
2022/02/28 07:53:46;;;;;;;3.60;1.50;;;;;;;2.64;97.39;101160.25;1710059;83;20115;-68
2022/02/28 07:56:12;;;;;;;;;;;;;;;2.63;96.50;101157.23;1713350;82;21114;-68
2022/02/28 07:58:38;;;;;;;6.67;1.80;;;;;;;2.86;96.46;101161.17;1726000;82;20116;-68
2022/02/28 08:01:05;;;;;;;4.47;1.77;;;;;;;2.96;92.52;101162.55;1733504;82;21147;-68
2022/02/28 08:03:31;;;;;;;3.72;1.95;;;;;;;3.01;84.13;101160.11;1705673;82;21523;-65
2022/02/28 08:05:58;;;;;;;4.03;1.82;;;;;;;2.97;84.36;101150.78;1709805;82;21849;-69
2022/02/28 08:08:24;;;;;;;4.90;1.95;;;;;;;3.04;81.79;101160.27;1714992;82;21040;-69
2022/02/28 08:10:51;;;;;;;3.92;2.00;;;;;;;3.09;81.78;101143.03;1696677;82;21447;-68
2022/02/28 08:13:18;;;;;;;4.53;1.82;;;;;;;3.13;80.01;101156.44;1698280;82;20961;-70
2022/02/28 08:15:44;;;;;;;5.78;2.05;;;;;;;3.33;80.51;101153.98;1731313;82;21024;-69
2022/02/28 08:18:11;;;;;;;4.58;1.72;;;;;;;3.49;78.61;101152.39;1708124;82;20966;-69
2022/02/28 08:20:39;;;;;;;3.55;1.90;;;;;;;3.59;72.25;101141.29;1705328;82;20980;-68
2022/02/28 08:23:06;;;;;;;;;;;;;;;3.48;72.74;101143.47;1697765;82;20960;-68
2022/02/28 08:25:33;;;;;;;3.97;1.60;;;;;;;3.54;68.53;101143.23;1715651;82;20102;-66
2022/02/28 08:28:00;;;;;;;4.35;1.80;;;;;;;3.30;70.10;101147.11;1714376;82;21028;-68
2022/02/28 08:30:26;;;;;;;6.50;1.85;;;;;;;3.51;71.86;101141.73;1716162;82;21035;-66
2022/02/28 08:32:54;;;;;;;3.98;1.72;;;;;;;3.65;69.84;101147.28;1713821;81;21024;-66
2022/02/28 08:35:21;;;;;;;4.58;2.30;;;;;;;3.84;70.28;101144.75;1712924;82;20990;-67
2022/02/28 08:37:47;;;;;;;4.65;2.25;;;;;;;4.13;69.34;101143.75;1700977;82;20999;-66
2022/02/28 08:44:31;;;;;;;3.10;1.72;;;;;;;5.01;67.23;101144.37;1712566;82;21911;-67
2022/02/28 08:46:58;;;;;;;;;;;;;;;4.87;56.71;101140.78;1713847;82;21080;-62
2022/02/28 08:49:24;;;;;;;3.65;1.82;;;;;;;4.68;59.14;101143.36;1714528;82;20103;-60
2022/02/28 08:51:54;;;;;;;4.28;1.82;;;;;;;4.82;60.75;101143.23;1705487;82;21142;-64
2022/02/28 08:54:20;;;;;;;3.52;1.60;;;;;;;4.84;57.30;101140.35;1715742;82;21059;-64
2022/02/28 08:56:46;;;;;;;4.05;2.22;;;;;;;4.66;57.75;101135.48;1697916;82;21037;-64
2022/02/28 08:59:13;;;;;;;;;;;;;;;4.92;58.41;101145.59;1709925;82;21035;-63
2022/02/28 09:01:39;;;;;;;4.60;2.17;;;;;;;5.06;56.07;101142.42;1700606;82;20096;-63
2022/02/28 09:04:06;;;;;;;4.65;2.27;;;;;;;4.74;55.03;101140.73;1710043;82;21559;-62
2022/02/28 09:06:32;;;;;;;6.17;2.20;;;;;;;4.69;55.96;101143.17;1712058;81;21662;-63
2022/02/28 09:08:58;;;;;;;;;;;;;;;4.83;56.12;101145.42;1714872;81;21013;-61
2022/02/28 09:11:25;;;;;;;3.92;2.10;;;;;;;4.95;56.08;101136.58;1711142;82;20181;-60
2022/02/28 09:13:52;;;;;;;3.52;1.52;;;;;;;5.26;55.09;101139.27;1728337;81;21048;-59
2022/02/28 09:16:21;;;;;;;;;;;;;;;5.50;54.06;101134.64;1722792;82;21577;-60
2022/02/28 09:18:51;;;;;;;3.30;1.70;;;;;;;5.79;52.27;101141.55;1715486;81;20111;-65
2022/02/28 09:21:17;;;;;;;;;;;;;;;5.88;51.11;101133.61;1712508;82;21115;-64
2022/02/28 09:23:43;;;;;;;3.02;1.60;;;;;;;5.98;51.36;101135.37;1715898;82;20122;-62
2022/02/28 09:26:10;;;;;;;3.72;1.62;;;;;;;6.15;50.34;101135.77;1721595;82;21138;-63
2022/02/28 09:28:38;;;;;;;3.22;1.70;;;;;;;6.35;50.11;101132.00;1711902;82;20988;-63
2022/02/28 09:31:05;;;;;;;4.40;1.40;;;;;;;6.46;48.57;101128.66;1719506;81;21139;-67
2022/02/28 09:33:31;;;;;;;5.33;1.92;;;;;;;6.30;47.58;101137.74;1713180;82;21008;-66
2022/02/28 09:35:58;;;;;;;;;;;;;;;6.08;48.19;101135.78;1714677;82;21087;-65
2022/02/28 09:38:24;;;;;;;4.78;1.90;;;;;;;6.21;48.12;101130.88;1714051;82;20099;-65
2022/02/28 09:40:53;;;;;;;4.03;1.67;;;;;;;6.33;49.85;101130.05;1730625;82;20988;-64
2022/02/28 09:43:38;;;;;;;4.35;1.65;;;;;;;6.73;48.24;101117.23;1711392;82;21109;-65
2022/02/28 09:46:23;;;;;;;3.60;1.80;;;;;;;6.77;46.58;101120.34;1748837;80;21630;-66
2022/02/28 09:48:52;;;;;;;4.53;1.80;;;;;;;6.94;46.77;101119.65;1713129;82;21028;-66
2022/02/28 09:51:38;;;;;;;3.55;1.80;;;;;;;6.99;45.68;101114.95;1708552;82;21055;-65
2022/02/28 09:54:15;;;;;;;6.58;2.45;;;;;;;7.06;46.31;101113.56;1606258;88;21660;-65
2022/02/28 09:56:44;;;;;;;4.70;2.40;;;;;;;7.37;46.12;101095.47;1693161;82;21587;-64
2022/02/28 09:59:24;;;;;;;3.65;1.90;;;;;;;7.62;44.65;101101.45;1705020;82;21112;-64
2022/02/28 10:01:51;;;;;;;3.05;1.67;;;;;;;7.33;44.51;101101.56;1706741;82;21102;-66
2022/02/28 10:04:19;;;;;;;4.83;1.82;;;;;;;7.26;45.30;101098.88;1717218;82;21483;-65
2022/02/28 10:06:47;;;;;;;4.47;2.50;;;;;;;7.42;45.13;101088.89;1723218;81;21600;-66
2022/02/28 10:09:18;;;;;;;5.35;2.30;;;;;;;7.31;44.75;101093.64;1713358;82;21451;-63
2022/02/28 10:11:51;;;;;;;3.52;1.98;;;;;;;6.84;44.60;101094.91;1713874;82;21546;-62
2022/02/28 10:14:18;;;;;;;3.87;2.02;;;;;;;6.10;45.71;101092.30;1720171;82;20996;-63
2022/02/28 10:16:57;;;;;;;3.98;2.25;;;;;;;5.59;47.32;101095.62;1714388;82;21047;-64
2022/02/28 10:19:28;;;;;;;4.30;2.00;;;;;;;5.24;48.05;101108.44;1711065;81;21371;-63
2022/02/28 10:21:58;;;;;;;5.92;2.70;;;;;;;4.75;49.51;101104.60;1717209;82;21545;-64
2022/02/28 10:24:39;;;;;;;6.03;3.42;;;;;;;4.52;51.38;101096.00;1696785;81;21476;-65
2022/02/28 10:27:19;;;;;;;11.00;4.17;;;;;;;4.26;52.47;101097.17;1710680;82;21055;-63
2022/02/28 10:30:06;;;;;;;7.10;3.72;;;;;;;3.92;54.92;101088.56;1726337;81;21590;-64
2022/02/28 10:32:51;;;;;;;6.55;3.83;;;;;;;3.79;57.44;101081.19;1660197;85;21490;-63
2022/02/28 10:36:01;;;;;;;7.90;3.45;;;;;;;3.78;59.81;101088.13;1713386;82;21003;-64
2022/02/28 10:38:34;;;;;;;7.53;3.00;;;;;;;3.72;59.34;101090.27;1713011;80;21066;-62
2022/02/28 10:41:01;;;;;;;4.92;2.65;;;;;;;3.54;58.52;101083.16;1702718;82;21597;-63
2022/02/28 10:43:33;;;;;;;;;;;;;;;3.43;59.63;101080.48;1687897;82;21590;-62
2022/02/28 10:46:04;;;;;;;7.53;2.30;;;;;;;3.41;61.07;101082.00;1653410;85;20123;-63
2022/02/28 10:48:32;;;;;;;5.72;2.20;;;;;;;3.38;61.34;101073.48;1687115;83;21715;-63
2022/02/28 10:50:58;;;;;;;4.50;2.10;;;;;;;3.45;60.39;101073.03;1698321;83;21064;-63
2022/02/28 10:53:25;;;;;;;6.50;2.47;;;;;;;3.43;59.80;101071.89;1709712;82;21054;-62
2022/02/28 10:55:52;;;;;;;6.58;2.98;;;;;;;3.50;59.18;101067.41;1711928;81;20995;-62
2022/02/28 10:58:24;;;;;;;;;;;;;;;3.45;58.63;101052.33;1715862;81;21044;-62
2022/02/28 11:00:59;;;;;;;4.62;2.17;;;;;;;3.39;58.54;101054.97;1704030;81;20194;-62
2022/02/28 11:03:45;;;;;;;7.22;2.10;;;;;;;3.41;59.10;101050.20;1727522;82;21050;-62
2022/02/28 11:06:13;;;;;;;3.72;1.90;;;;;;;3.46;57.36;101050.47;1708053;82;21051;-60
2022/02/28 11:08:45;;;;;;;4.47;2.40;;;;;;;3.41;57.29;101044.83;1714329;82;21048;-61
2022/02/28 11:11:14;;;;;;;3.80;1.95;;;;;;;3.50;58.67;101040.48;1721978;82;21209;-63
2022/02/28 11:13:43;;;;;;;3.52;1.70;;;;;;;3.58;58.68;101040.83;1709390;82;21488;-61
2022/02/28 11:16:09;;;;;;;3.37;1.77;;;;;;;3.65;57.64;101038.21;1721739;82;21079;-62
2022/02/28 11:18:37;;;;;;;3.22;1.47;;;;;;;3.63;58.64;101053.20;1700706;82;21083;-62
2022/02/28 11:21:03;;;;;;;3.12;1.50;;;;;;;3.72;57.98;101047.98;1715654;82;21099;-64
2022/02/28 11:23:30;;;;;;;3.52;1.55;;;;;;;3.77;57.31;101044.71;1713917;82;21008;-61
2022/02/28 11:25:57;;;;;;;4.03;2.27;;;;;;;3.78;57.13;101047.73;1713404;82;21107;-63
2022/02/28 11:28:24;;;;;;;4.95;1.80;;;;;;;3.87;57.05;101047.89;1712007;82;21039;-59
2022/02/28 11:30:50;;;;;;;3.85;1.70;;;;;;;3.92;56.82;101045.45;1713413;82;20988;-61
2022/02/28 11:33:17;;;;;;;3.87;1.50;;;;;;;4.03;57.17;101043.56;1707607;82;21080;-63
2022/02/28 11:35:48;;;;;;;;;;;;;;;4.09;55.33;101031.98;1717384;82;21011;-62
2022/02/28 11:38:24;;;;;;;2.37;1.07;;;;;;;4.16;55.39;101032.85;1697089;82;20506;-65
2022/02/28 11:40:57;;;;;;;5.37;2.00;;;;;;;4.12;53.71;101031.58;1713075;82;20991;-65
2022/02/28 11:43:30;;;;;;;2.95;1.32;;;;;;;4.01;53.37;101037.01;1712295;81;21090;-65
2022/02/28 11:46:11;;;;;;;3.02;1.75;;;;;;;4.04;53.88;101046.55;1723742;82;21003;-64
2022/02/28 11:48:40;;;;;;;4.37;2.00;;;;;;;4.06;52.28;101033.73;1715759;82;21035;-63
2022/02/28 11:51:10;;;;;;;5.30;1.90;;;;;;;4.02;52.23;101029.77;1726781;82;21052;-61
2022/02/28 11:53:49;;;;;;;5.72;1.90;;;;;;;4.04;51.84;101045.75;1715526;82;21038;-61
2022/02/28 11:56:24;;;;;;;6.72;1.90;;;;;;;4.01;51.91;101026.74;1699578;82;21024;-63
2022/02/28 11:58:56;;;;;;;4.83;2.10;;;;;;;4.07;52.80;101030.52;1710998;82;21015;-63
2022/02/28 12:01:34;;;;;;;5.00;2.15;;;;;;;4.21;52.45;101029.57;1693786;83;21044;-63
2022/02/28 12:04:40;;;;;;;4.28;1.77;;;;;;;4.34;51.79;101038.55;1697660;82;21027;-63
2022/02/28 12:07:26;;;;;;;5.78;1.82;;;;;;;4.42;50.09;101053.23;1695699;82;21115;-65
2022/02/28 12:10:09;;;;;;;4.17;2.12;;;;;;;4.38;48.58;101037.64;1704468;82;21039;-61
2022/02/28 12:12:38;;;;;;;4.25;2.20;;;;;;;4.34;48.48;101044.45;1724506;82;21533;-61
2022/02/28 12:15:11;;;;;;;4.95;2.52;;;;;;;4.36;48.84;101032.44;1722850;82;20987;-64
2022/02/28 12:17:43;;;;;;;3.92;2.15;;;;;;;4.49;48.08;101043.30;1703149;82;21031;-63
2022/02/28 12:20:26;;;;;;;5.47;2.40;;;;;;;4.51;47.60;101038.53;1693139;82;21022;-65
2022/02/28 12:23:03;;;;;;;4.80;2.15;;;;;;;4.47;47.12;101047.21;1713501;82;21043;-62
2022/02/28 12:25:53;;;;;;;4.03;2.00;;;;;;;4.43;47.74;101047.30;1713929;82;21884;-61
2022/02/28 12:28:32;;;;;;;4.12;1.62;;;;;;;4.41;46.82;101044.81;1719194;82;21020;-63
2022/02/28 12:31:12;;;;;;;3.20;1.37;;;;;;;4.32;46.88;101043.84;1718721;82;21505;-63
2022/02/28 12:33:45;;;;;;;3.77;1.72;;;;;;;4.28;46.39;101033.97;1697747;82;21024;-62
2022/02/28 12:36:17;;;;;;;3.20;1.55;;;;;;;4.22;45.96;101040.64;1714110;82;21044;-63
2022/02/28 12:38:50;;;;;;;3.50;1.60;;;;;;;4.18;46.10;101034.02;1715786;82;21093;-63
2022/02/28 12:41:20;;;;;;;3.65;1.90;;;;;;;4.19;46.27;101035.14;1707625;82;21099;-61
2022/02/28 12:43:47;;;;;;;3.92;1.67;;;;;;;4.19;46.72;101037.00;1693383;82;21623;-66
2022/02/28 12:46:27;;;;;;;2.85;1.35;;;;;;;4.23;47.23;101036.92;1714130;82;21695;-62
2022/02/28 12:48:54;;;;;;;2.80;1.40;;;;;;;4.31;46.70;101027.34;1708914;82;21066;-61
2022/02/28 12:51:27;;;;;;;2.98;1.25;;;;;;;4.34;45.87;101035.86;1692867;83;21023;-65
2022/02/28 12:54:01;;;;;;;3.33;1.30;;;;;;;4.31;45.88;101037.61;1699171;82;21609;-62
2022/02/28 12:56:27;;;;;;;4.10;2.08;;;;;;;4.26;46.06;101026.58;1707817;82;21063;-65
2022/02/28 12:58:54;;;;;;;2.58;1.22;;;;;;;4.26;46.38;101029.27;1708533;82;21079;-59
2022/02/28 13:01:25;;;;;;;;;;;;;;;4.28;46.79;101016.95;1708411;82;21497;-61
2022/02/28 13:03:58;;;;;;;4.33;1.20;;;;;;;4.31;46.37;101016.05;1719975;82;20110;-61
2022/02/28 13:06:28;;;;;;;3.17;1.45;;;;;;;4.25;45.68;101014.67;1712230;82;21035;-62
2022/02/28 13:09:13;;;;;;;3.30;1.37;;;;;;;4.19;46.47;101016.79;1713251;82;21615;-61
2022/02/28 13:11:51;;;;;;;4.25;1.50;;;;;;;4.14;46.89;101006.63;1703819;82;21036;-61
2022/02/28 13:14:25;;;;;;;2.87;1.45;;;;;;;4.08;47.32;101012.80;1711622;82;21044;-66
2022/02/28 13:16:54;;;;;;;3.98;1.50;;;;;;;4.04;47.86;101010.17;1693413;83;21033;-64
2022/02/28 13:19:25;;;;;;;2.33;1.47;;;;;;;4.09;48.56;101007.73;1709418;82;21060;-69
2022/02/28 13:21:57;;;;;;;2.95;1.50;;;;;;;4.20;48.64;101006.34;1704723;82;21139;-69
2022/02/28 13:24:29;;;;;;;3.75;1.72;;;;;;;4.25;48.22;101002.54;1717218;82;21031;-67
2022/02/28 13:26:57;;;;;;;3.15;1.32;;;;;;;4.28;48.31;101008.88;1704790;82;21604;-66
2022/02/28 13:29:25;;;;;;;4.12;1.80;;;;;;;4.29;47.47;101010.00;1710181;82;21604;-63
2022/02/28 13:31:57;;;;;;;5.87;1.70;;;;;;;4.26;47.35;101007.71;1703117;83;21040;-61
2022/02/28 13:34:24;;;;;;;5.17;1.50;;;;;;;4.23;46.63;101003.23;1712206;82;21057;-63
2022/02/28 13:36:57;;;;;;;;;;;;;;;4.17;47.04;101001.34;1682774;83;21111;-66
2022/02/28 13:39:28;;;;;;;2.35;1.17;;;;;;;4.18;47.22;101005.72;1710697;82;20112;-66
2022/02/28 13:42:00;;;;;;;2.00;1.17;;;;;;;4.12;46.29;100995.20;1727539;82;21020;-64
2022/02/28 13:44:26;;;;;;;3.05;1.00;;;;;;;4.09;45.69;101002.84;1709253;82;21031;-64
2022/02/28 13:47:07;;;;;;;3.20;1.30;;;;;;;4.07;44.68;100995.50;1691148;82;21056;-64
2022/02/28 13:49:43;;;;;;;1.95;0.90;;;;;;;3.92;44.90;100989.72;1715247;82;21044;-65
2022/02/28 13:52:15;;;;;;;4.08;1.35;;;;;;;3.93;44.70;100997.28;1704999;82;21110;-65
2022/02/28 13:55:09;;;;;;;3.08;1.30;;;;;;;3.87;45.23;100998.05;1711813;82;21055;-66
2022/02/28 13:57:40;;;;;;;2.52;1.25;;;;;;;3.86;45.73;100997.22;1708349;82;21040;-67
2022/02/28 14:00:26;;;;;;;2.77;1.22;;;;;;;3.85;45.34;100991.53;1717820;82;21008;-67
2022/02/28 14:03:02;;;;;;;3.05;1.37;;;;;;;3.81;45.20;100992.12;1714860;82;21059;-65
2022/02/28 14:05:41;;;;;;;3.08;1.60;;;;;;;3.81;45.38;100997.50;1711342;82;20993;-66
2022/02/28 14:08:19;;;;;;;3.98;1.40;;;;;;;3.79;45.27;100999.03;1712172;82;21599;-65
2022/02/28 14:10:49;;;;;;;2.35;1.20;;;;;;;3.76;45.08;100999.44;1698507;82;21554;-68
2022/02/28 14:13:33;;;;;;;3.83;1.47;;;;;;;3.73;44.92;100997.65;1705137;82;21398;-67
2022/02/28 14:16:27;;;;;;;4.08;2.05;;;;;;;3.67;45.33;100996.59;1678150;83;21200;-66
2022/02/28 14:19:15;;;;;;;2.75;1.32;;;;;;;3.65;45.73;100997.28;1620106;84;21039;-64
2022/02/28 14:22:03;;;;;;;4.65;1.65;;;;;;;3.60;46.16;100994.36;1642559;85;21741;-66
2022/02/28 14:24:56;;;;;;;3.50;1.62;;;;;;;3.57;46.28;100990.72;1655216;85;21419;-66
2022/02/28 14:27:45;;;;;;;4.70;1.70;;;;;;;3.55;46.66;100993.27;1704772;82;21038;-67
2022/02/28 14:30:31;;;;;;;3.75;2.08;;;;;;;3.52;47.11;100997.19;1722692;82;21039;-65
2022/02/28 14:33:09;;;;;;;4.40;2.17;;;;;;;3.48;47.67;100995.91;1695776;82;21004;-66
2022/02/28 14:35:37;;;;;;;4.40;2.25;;;;;;;3.43;47.97;100991.13;1719326;82;21051;-66
2022/02/28 14:38:04;;;;;;;3.47;2.00;;;;;;;3.39;48.31;100991.70;1712205;82;21571;-68
2022/02/28 14:40:31;;;;;;;4.50;2.27;;;;;;;3.34;48.69;100986.90;1713770;82;21858;-67
2022/02/28 14:42:58;;;;;;;4.85;2.45;;;;;;;3.32;48.77;100990.31;1716765;82;21104;-66
2022/02/28 14:45:25;;;;;;;5.78;3.15;;;;;;;3.30;49.24;100984.78;1725748;82;21051;-61
2022/02/28 14:47:51;;;;;;;;;;;;;;;3.29;49.34;100984.48;1716489;82;21103;-68
2022/02/28 14:50:17;;;;;;;6.67;3.05;;;;;;;3.25;49.82;100984.04;1704556;82;20119;-64
2022/02/28 14:52:44;;;;;;;6.30;3.17;;;;;;;3.18;50.06;100979.63;1709066;82;21098;-63
2022/02/28 14:55:11;;;;;;;;;;;;;;;3.15;50.60;100980.02;1710088;82;21050;-61
2022/02/28 14:57:37;;;;;;;9.20;5.47;;;;;;;3.14;51.08;100983.72;1697465;82;20112;-64
2022/02/28 15:00:05;;;;;;;;;;;;;;;3.07;52.07;100981.48;1707506;82;21014;-61
2022/02/28 15:02:31;;;;;;;10.35;5.55;;;;;;;3.03;52.97;100985.58;1710677;82;20178;-63
2022/02/28 15:04:59;;;;;;;10.85;5.70;;;;;;;2.95;53.98;100986.53;1711959;82;21990;-68
2022/02/28 15:07:26;;;;;;;;;;;;;;;2.91;55.23;100988.78;1700474;82;21142;-64
2022/02/28 15:09:54;;;;;;;10.18;6.35;;;;;;;2.88;56.34;100982.95;1698990;82;20106;-70
2022/02/28 15:12:21;;;;;;;13.30;7.53;;;;;;;2.81;57.53;100987.42;1695741;82;21493;-68
2022/02/28 15:14:49;;;;;;;14.98;8.75;;;;;;;2.77;58.98;100980.25;1722331;82;21149;-66
2022/02/28 15:17:18;;;;;;;16.73;8.35;;;;;;;2.74;59.87;100989.22;1704894;82;21115;-70
2022/02/28 15:19:47;;;;;;;14.70;8.90;;;;;;;2.72;60.98;100989.93;1726759;82;21102;-66
2022/02/28 15:22:15;;;;;;;17.73;10.63;;;;;;;2.70;61.94;100990.61;1664355;83;21039;-67
2022/02/28 15:24:41;;;;;;;17.82;10.08;;;;;;;2.69;62.45;100995.69;1710174;82;21094;-68
2022/02/28 15:27:08;;;;;;;21.07;10.43;;;;;;;2.66;62.99;100996.08;1708647;83;21079;-68
2022/02/28 15:29:35;;;;;;;;;;;;;;;2.60;63.86;100997.65;1727670;82;21071;-68
2022/02/28 15:32:01;;;;;;;21.42;11.90;;;;;;;2.52;64.81;101000.44;1721914;82;20135;-67
2022/02/28 15:34:28;;;;;;;24.27;12.37;;;;;;;2.39;66.34;101003.81;1735948;82;21047;-68
2022/02/28 15:36:55;;;;;;;20.52;11.08;;;;;;;2.35;67.53;101003.03;1721960;82;21082;-68
2022/02/28 15:39:21;;;;;;;21.52;12.03;;;;;;;2.32;68.66;101010.13;1701802;82;21082;-68
2022/02/28 15:41:48;;;;;;;21.23;12.28;;;;;;;2.26;69.63;101013.06;1729314;82;21628;-62
2022/02/28 15:44:14;;;;;;;21.93;11.93;;;;;;;2.20;71.17;101014.30;1696154;83;21066;-63
2022/02/28 15:46:41;;;;;;;21.80;12.45;;;;;;;2.15;72.33;101021.59;1713602;82;21095;-62
2022/02/28 15:49:09;;;;;;;;;;;;;;;2.11;73.70;101024.32;1711407;82;21039;-64
2022/02/28 15:51:36;;;;;;;20.40;11.75;;;;;;;2.06;74.93;101020.50;1702368;82;20166;-60
2022/02/28 15:54:02;;;;;;;20.32;10.93;;;;;;;1.94;76.57;101033.59;1712690;82;20984;-60
2022/02/28 15:56:29;;;;;;;21.68;10.23;;;;;;;1.89;77.31;101031.44;1711979;82;21040;-67
2022/02/28 15:58:57;;;;;;;18.48;10.90;;;;;;;1.88;78.27;101035.64;1714064;82;21027;-66
2022/02/28 16:01:23;;;;;;;17.30;11.12;;;;;;;1.82;79.17;101035.88;1715242;82;21034;-63
2022/02/28 16:03:51;;;;;;;19.82;11.88;;;;;;;1.78;79.99;101040.45;1713567;82;21079;-61
2022/02/28 16:06:17;;;;;;;17.87;10.75;;;;;;;1.74;80.29;101036.45;1693916;83;21578;-62
2022/02/28 16:08:45;;;;;;;19.35;10.60;;;;;;;1.72;80.48;101043.87;1698671;82;21036;-64
2022/02/28 16:11:13;;;;;;;;;;;;;;;1.68;80.54;101039.88;1698545;82;21018;-64
2022/02/28 16:13:39;;;;;;;14.87;9.80;;;;;;;1.66;80.20;101038.73;1708677;82;20138;-62
2022/02/28 16:16:07;;;;;;;18.80;10.53;;;;;;;1.57;80.87;101046.52;1708959;82;21526;-61
2022/02/28 16:18:34;;;;;;;19.57;11.10;;;;;;;1.54;81.21;101033.47;1704364;82;21530;-61
2022/02/28 16:21:01;;;;;;;17.92;10.70;;;;;;;1.57;81.19;101035.78;1696988;82;21532;-63
2022/02/28 16:23:27;;;;;;;16.70;9.35;;;;;;;1.56;81.45;101035.45;1710659;82;20992;-63
2022/02/28 16:25:55;;;;;;;15.63;10.00;;;;;;;1.55;81.57;101032.97;1696189;82;20988;-67
2022/02/28 16:28:21;;;;;;;17.95;11.20;;;;;;;1.57;80.66;101041.66;1711077;82;20969;-69
2022/02/28 16:30:48;;;;;;;20.92;11.08;;;;;;;1.56;81.36;101035.98;1704792;82;21050;-69
2022/02/28 16:33:15;;;;;;;17.65;10.72;;;;;;;1.56;81.72;101040.82;1727574;82;21012;-70
2022/02/28 16:35:45;;;;;;;18.98;12.07;;;;;;;1.57;81.79;101045.69;1721900;82;21034;-69
2022/02/28 16:38:11;;;;;;;21.97;13.13;;;;;;;1.54;82.12;101048.23;1705120;82;21778;-69
2022/02/28 16:40:38;;;;;;;21.42;12.40;;;;;;;1.54;82.38;101043.37;1708753;82;21102;-71
2022/02/28 16:43:04;;;;;;;22.90;13.98;;;;;;;1.52;80.56;101039.55;1713701;82;21099;-68
2022/02/28 16:45:31;;;;;;;;;;;;;;;1.52;79.36;101038.20;1736440;82;21091;-69
2022/02/28 16:47:57;;;;;;;20.50;10.95;;;;;;;1.48;79.38;101036.39;1728471;82;20123;-68
2022/02/28 16:50:26;;;;;;;18.92;10.58;;;;;;;1.38;79.51;101034.97;1705479;83;21139;-69
2022/02/28 16:52:54;;;;;;;21.02;11.85;;;;;;;1.35;80.45;101028.59;1720260;82;22384;-69
2022/02/28 16:55:24;;;;;;;22.98;12.47;;;;;;;1.30;80.75;101025.14;1735362;82;21103;-68
2022/02/28 16:57:51;;;;;;;21.57;11.50;;;;;;;1.23;81.76;101034.92;1731421;82;21556;-68
2022/02/28 17:00:18;;;;;;;17.65;10.35;;;;;;;1.23;83.00;101036.27;1717068;82;21027;-68
2022/02/28 17:04:52;;;;;;;18.27;9.48;;;;;;;1.18;84.12;101034.61;1782050;79;22863;-64
2022/02/28 17:07:19;;;;;;;18.90;10.45;;;;;;;1.10;85.76;101044.58;1738257;81;21579;-67
2022/02/28 17:09:48;;;;;;;20.17;10.65;;;;;;;1.13;86.26;101042.88;1736124;81;21007;-64
2022/02/28 17:12:16;;;;;;;22.60;12.68;;;;;;;1.11;86.98;101032.32;1756577;81;21058;-68
2022/02/28 17:14:44;;;;;;;21.70;12.15;;;;;;;1.16;87.37;101043.36;1759246;81;21578;-70
2022/02/28 17:17:11;;;;;;;21.00;12.23;;;;;;;1.13;88.81;101043.72;1759497;80;21084;-64
2022/02/28 17:19:38;;;;;;;23.40;12.73;;;;;;;1.12;89.22;101042.05;1718412;83;21027;-67
2022/02/28 17:22:08;;;;;;;23.52;12.85;;;;;;;1.10;89.40;101041.91;1725308;81;21055;-64
2022/02/28 17:24:35;;;;;;;22.70;11.60;;;;;;;1.09;89.69;101041.06;1759658;81;21094;-65
2022/02/28 17:27:02;;;;;;;23.07;12.85;;;;;;;1.08;90.41;101045.25;1759756;80;21049;-66
2022/02/28 17:29:29;;;;;;;20.17;12.73;;;;;;;1.11;90.34;101046.23;1759314;81;21514;-67
2022/02/28 17:31:58;;;;;;;20.40;11.63;;;;;;;1.11;90.84;101047.07;1758813;81;21509;-68
2022/02/28 17:34:25;;;;;;;22.45;12.20;;;;;;;1.10;91.36;101041.91;1747873;81;21041;-67
2022/02/28 17:36:51;;;;;;;18.27;11.53;;;;;;;1.08;91.61;101040.73;1748677;80;21018;-66
2022/02/28 17:39:18;;;;;;;19.90;11.15;;;;;;;1.06;92.93;101041.92;1759425;81;20978;-65
2022/02/28 17:41:45;;;;;;;18.05;10.00;;;;;;;1.04;93.25;101033.20;1758389;80;21038;-64
2022/02/28 17:44:11;;;;;;;19.42;11.18;;;;;;;1.04;94.00;101027.34;1754420;81;21527;-67
2022/02/28 17:46:42;;;;;;;18.80;10.13;;;;;;;1.01;94.07;101034.41;1755001;80;21026;-64
2022/02/28 17:49:13;;;;;;;18.55;10.82;;;;;;;0.99;94.51;101033.77;1753155;81;21524;-64
2022/02/28 17:51:40;;;;;;;15.68;8.98;;;;;;;0.95;94.98;101033.28;1759062;80;21066;-65
2022/02/28 17:54:08;;;;;;;13.58;8.85;;;;;;;0.93;95.60;101034.45;1756234;81;21391;-64
